sensor_id;sensor_type;location;lat;lon;timestamp;P1;durP1;ratioP1;P2;durP2;ratioP2
7154;SDS011;3619;53.784;10.440;2023-03-01T00:02:22;2.83;;;2.73;;
7154;SDS011;3619;53.784;10.440;2023-03-01T00:04:48;2.73;;;2.63;;
7154;SDS011;3619;53.784;10.440;2023-03-01T00:07:15;2.70;;;2.60;;
7154;SDS011;3619;53.784;10.440;2023-03-01T00:09:42;3.10;;;3.00;;
7154;SDS011;3619;53.784;10.440;2023-03-01T00:12:10;2.60;;;2.50;;
7154;SDS011;3619;53.784;10.440;2023-03-01T00:14:37;2.60;;;2.50;;
7154;SDS011;3619;53.784;10.440;2023-03-01T00:17:04;3.23;;;3.13;;
7154;SDS011;3619;53.784;10.440;2023-03-01T00:19:32;2.63;;;2.53;;
7154;SDS011;3619;53.784;10.440;2023-03-01T00:21:59;2.53;;;2.43;;
7154;SDS011;3619;53.784;10.440;2023-03-01T00:24:26;2.40;;;2.30;;
7154;SDS011;3619;53.784;10.440;2023-03-01T00:26:52;2.20;;;2.10;;
7154;SDS011;3619;53.784;10.440;2023-03-01T00:29:22;2.30;;;2.20;;
7154;SDS011;3619;53.784;10.440;2023-03-01T00:31:49;3.27;;;3.17;;
7154;SDS011;3619;53.784;10.440;2023-03-01T00:34:15;2.50;;;2.40;;
7154;SDS011;3619;53.784;10.440;2023-03-01T00:36:44;2.63;;;2.53;;
7154;SDS011;3619;53.784;10.440;2023-03-01T00:39:11;2.40;;;2.30;;
7154;SDS011;3619;53.784;10.440;2023-03-01T00:41:39;3.07;;;2.97;;
7154;SDS011;3619;53.784;10.440;2023-03-01T00:44:06;2.83;;;2.73;;
7154;SDS011;3619;53.784;10.440;2023-03-01T00:46:33;2.40;;;2.30;;
7154;SDS011;3619;53.784;10.440;2023-03-01T00:49:00;2.53;;;2.43;;
7154;SDS011;3619;53.784;10.440;2023-03-01T00:51:29;2.60;;;2.50;;
7154;SDS011;3619;53.784;10.440;2023-03-01T00:53:58;2.60;;;2.50;;
7154;SDS011;3619;53.784;10.440;2023-03-01T00:56:27;3.23;;;3.13;;
7154;SDS011;3619;53.784;10.440;2023-03-01T00:58:54;2.57;;;2.47;;
7154;SDS011;3619;53.784;10.440;2023-03-01T01:01:22;2.60;;;2.50;;
7154;SDS011;3619;53.784;10.440;2023-03-01T01:03:52;2.87;;;2.77;;
7154;SDS011;3619;53.784;10.440;2023-03-01T01:06:21;2.27;;;2.17;;
7154;SDS011;3619;53.784;10.440;2023-03-01T01:08:50;2.50;;;2.40;;
7154;SDS011;3619;53.784;10.440;2023-03-01T01:11:21;3.00;;;2.90;;
7154;SDS011;3619;53.784;10.440;2023-03-01T01:13:48;2.30;;;2.20;;
7154;SDS011;3619;53.784;10.440;2023-03-01T01:16:17;3.07;;;2.97;;
7154;SDS011;3619;53.784;10.440;2023-03-01T01:18:44;2.77;;;2.67;;
7154;SDS011;3619;53.784;10.440;2023-03-01T01:21:12;2.57;;;2.47;;
7154;SDS011;3619;53.784;10.440;2023-03-01T01:23:40;3.07;;;2.97;;
7154;SDS011;3619;53.784;10.440;2023-03-01T01:26:08;2.93;;;2.83;;
7154;SDS011;3619;53.784;10.440;2023-03-01T01:28:38;2.77;;;2.67;;
7154;SDS011;3619;53.784;10.440;2023-03-01T01:31:05;2.57;;;2.47;;
7154;SDS011;3619;53.784;10.440;2023-03-01T01:33:32;2.83;;;2.73;;
7154;SDS011;3619;53.784;10.440;2023-03-01T01:35:59;2.70;;;2.60;;
7154;SDS011;3619;53.784;10.440;2023-03-01T01:38:26;3.07;;;2.97;;
7154;SDS011;3619;53.784;10.440;2023-03-01T01:40:53;2.97;;;2.87;;
7154;SDS011;3619;53.784;10.440;2023-03-01T01:43:21;2.60;;;2.50;;
7154;SDS011;3619;53.784;10.440;2023-03-01T01:45:51;2.40;;;2.30;;
7154;SDS011;3619;53.784;10.440;2023-03-01T01:48:23;3.30;;;3.20;;
7154;SDS011;3619;53.784;10.440;2023-03-01T01:51:06;2.50;;;2.40;;
7154;SDS011;3619;53.784;10.440;2023-03-01T01:53:37;3.40;;;3.30;;
7154;SDS011;3619;53.784;10.440;2023-03-01T01:56:06;3.50;;;3.40;;
7154;SDS011;3619;53.784;10.440;2023-03-01T01:58:35;3.30;;;3.20;;
7154;SDS011;3619;53.784;10.440;2023-03-01T02:01:04;3.30;;;3.20;;
7154;SDS011;3619;53.784;10.440;2023-03-01T02:03:32;3.27;;;3.17;;
7154;SDS011;3619;53.784;10.440;2023-03-01T02:06:03;3.67;;;3.57;;
7154;SDS011;3619;53.784;10.440;2023-03-01T02:08:34;3.77;;;3.67;;
7154;SDS011;3619;53.784;10.440;2023-03-01T02:11:03;3.70;;;3.60;;
7154;SDS011;3619;53.784;10.440;2023-03-01T02:13:31;3.53;;;3.43;;
7154;SDS011;3619;53.784;10.440;2023-03-01T02:16:02;3.47;;;3.37;;
7154;SDS011;3619;53.784;10.440;2023-03-01T02:18:31;3.63;;;3.53;;
7154;SDS011;3619;53.784;10.440;2023-03-01T02:21:01;3.50;;;3.40;;
7154;SDS011;3619;53.784;10.440;2023-03-01T02:23:37;3.43;;;3.33;;
7154;SDS011;3619;53.784;10.440;2023-03-01T02:26:07;3.70;;;3.60;;
7154;SDS011;3619;53.784;10.440;2023-03-01T02:28:40;3.33;;;3.23;;
7154;SDS011;3619;53.784;10.440;2023-03-01T02:31:10;2.77;;;2.67;;
7154;SDS011;3619;53.784;10.440;2023-03-01T02:33:58;2.90;;;2.80;;
7154;SDS011;3619;53.784;10.440;2023-03-01T02:36:25;2.97;;;2.87;;
7154;SDS011;3619;53.784;10.440;2023-03-01T02:38:56;2.67;;;2.57;;
7154;SDS011;3619;53.784;10.440;2023-03-01T02:41:26;3.03;;;2.93;;
7154;SDS011;3619;53.784;10.440;2023-03-01T02:43:59;3.13;;;3.03;;
7154;SDS011;3619;53.784;10.440;2023-03-01T02:46:26;2.60;;;2.50;;
7154;SDS011;3619;53.784;10.440;2023-03-01T02:48:53;3.27;;;3.17;;
7154;SDS011;3619;53.784;10.440;2023-03-01T02:51:25;3.20;;;3.10;;
7154;SDS011;3619;53.784;10.440;2023-03-01T02:54:04;3.17;;;3.07;;
7154;SDS011;3619;53.784;10.440;2023-03-01T02:56:36;3.00;;;2.90;;
7154;SDS011;3619;53.784;10.440;2023-03-01T02:59:04;3.63;;;3.53;;
7154;SDS011;3619;53.784;10.440;2023-03-01T03:01:31;3.27;;;3.17;;
7154;SDS011;3619;53.784;10.440;2023-03-01T03:04:03;3.27;;;3.17;;
7154;SDS011;3619;53.784;10.440;2023-03-01T03:06:30;3.23;;;3.13;;
7154;SDS011;3619;53.784;10.440;2023-03-01T03:08:57;3.40;;;3.30;;
7154;SDS011;3619;53.784;10.440;2023-03-01T03:11:25;4.07;;;3.97;;
7154;SDS011;3619;53.784;10.440;2023-03-01T03:13:52;3.73;;;3.63;;
7154;SDS011;3619;53.784;10.440;2023-03-01T03:16:20;4.07;;;3.97;;
7154;SDS011;3619;53.784;10.440;2023-03-01T03:18:47;3.47;;;3.37;;
7154;SDS011;3619;53.784;10.440;2023-03-01T03:21:15;3.90;;;3.80;;
7154;SDS011;3619;53.784;10.440;2023-03-01T03:23:42;3.67;;;3.57;;
7154;SDS011;3619;53.784;10.440;2023-03-01T03:26:09;3.40;;;3.30;;
7154;SDS011;3619;53.784;10.440;2023-03-01T03:28:38;3.90;;;3.80;;
7154;SDS011;3619;53.784;10.440;2023-03-01T03:31:05;3.30;;;3.20;;
7154;SDS011;3619;53.784;10.440;2023-03-01T03:33:34;3.30;;;3.20;;
7154;SDS011;3619;53.784;10.440;2023-03-01T03:36:02;3.40;;;3.30;;
7154;SDS011;3619;53.784;10.440;2023-03-01T03:38:29;4.17;;;4.07;;
7154;SDS011;3619;53.784;10.440;2023-03-01T03:41:00;4.30;;;4.20;;
7154;SDS011;3619;53.784;10.440;2023-03-01T03:43:28;4.63;;;4.43;;
7154;SDS011;3619;53.784;10.440;2023-03-01T03:45:56;4.83;;;4.63;;
7154;SDS011;3619;53.784;10.440;2023-03-01T03:48:23;4.07;;;3.97;;
7154;SDS011;3619;53.784;10.440;2023-03-01T03:50:52;4.70;;;4.50;;
7154;SDS011;3619;53.784;10.440;2023-03-01T03:53:20;5.47;;;5.27;;
7154;SDS011;3619;53.784;10.440;2023-03-01T03:55:48;4.90;;;4.70;;
7154;SDS011;3619;53.784;10.440;2023-03-01T03:58:17;5.80;;;5.60;;
7154;SDS011;3619;53.784;10.440;2023-03-01T04:00:46;5.40;;;5.20;;
7154;SDS011;3619;53.784;10.440;2023-03-01T04:03:14;6.10;;;5.90;;
7154;SDS011;3619;53.784;10.440;2023-03-01T04:05:44;5.67;;;5.47;;
7154;SDS011;3619;53.784;10.440;2023-03-01T04:08:13;6.40;;;6.20;;
7154;SDS011;3619;53.784;10.440;2023-03-01T04:10:41;5.33;;;5.13;;
7154;SDS011;3619;53.784;10.440;2023-03-01T04:13:11;5.60;;;5.40;;
7154;SDS011;3619;53.784;10.440;2023-03-01T04:15:39;5.17;;;4.97;;
7154;SDS011;3619;53.784;10.440;2023-03-01T04:18:08;6.13;;;5.93;;
7154;SDS011;3619;53.784;10.440;2023-03-01T04:20:36;5.27;;;5.07;;
7154;SDS011;3619;53.784;10.440;2023-03-01T04:23:04;6.03;;;5.83;;
7154;SDS011;3619;53.784;10.440;2023-03-01T04:25:39;5.93;;;5.73;;
7154;SDS011;3619;53.784;10.440;2023-03-01T04:28:07;5.83;;;5.63;;
7154;SDS011;3619;53.784;10.440;2023-03-01T04:30:35;6.73;;;6.53;;
7154;SDS011;3619;53.784;10.440;2023-03-01T04:33:03;7.37;;;7.07;;
7154;SDS011;3619;53.784;10.440;2023-03-01T04:35:30;6.07;;;5.87;;
7154;SDS011;3619;53.784;10.440;2023-03-01T04:37:57;6.13;;;5.93;;
7154;SDS011;3619;53.784;10.440;2023-03-01T04:40:24;5.60;;;5.40;;
7154;SDS011;3619;53.784;10.440;2023-03-01T04:42:53;5.47;;;5.27;;
7154;SDS011;3619;53.784;10.440;2023-03-01T04:45:20;5.13;;;4.93;;
7154;SDS011;3619;53.784;10.440;2023-03-01T04:47:47;5.80;;;5.60;;
7154;SDS011;3619;53.784;10.440;2023-03-01T04:50:14;5.23;;;5.03;;
7154;SDS011;3619;53.784;10.440;2023-03-01T04:52:45;5.43;;;5.23;;
7154;SDS011;3619;53.784;10.440;2023-03-01T04:55:13;6.73;;;6.53;;
7154;SDS011;3619;53.784;10.440;2023-03-01T04:57:40;5.77;;;5.57;;
7154;SDS011;3619;53.784;10.440;2023-03-01T05:00:10;6.43;;;6.23;;
7154;SDS011;3619;53.784;10.440;2023-03-01T05:02:49;5.70;;;5.50;;
7154;SDS011;3619;53.784;10.440;2023-03-01T05:05:18;6.57;;;6.37;;
7154;SDS011;3619;53.784;10.440;2023-03-01T05:07:50;5.83;;;5.63;;
7154;SDS011;3619;53.784;10.440;2023-03-01T05:10:17;6.40;;;6.20;;
7154;SDS011;3619;53.784;10.440;2023-03-01T05:12:44;5.70;;;5.50;;
7154;SDS011;3619;53.784;10.440;2023-03-01T05:15:13;6.67;;;6.47;;
7154;SDS011;3619;53.784;10.440;2023-03-01T05:17:40;6.57;;;6.37;;
7154;SDS011;3619;53.784;10.440;2023-03-01T05:20:07;5.73;;;5.53;;
7154;SDS011;3619;53.784;10.440;2023-03-01T05:22:39;5.93;;;5.73;;
7154;SDS011;3619;53.784;10.440;2023-03-01T05:25:06;5.23;;;5.03;;
7154;SDS011;3619;53.784;10.440;2023-03-01T05:27:33;6.17;;;5.97;;
7154;SDS011;3619;53.784;10.440;2023-03-01T05:30:00;5.33;;;5.13;;
7154;SDS011;3619;53.784;10.440;2023-03-01T05:32:39;6.20;;;6.00;;
7154;SDS011;3619;53.784;10.440;2023-03-01T05:35:09;7.80;;;7.50;;
7154;SDS011;3619;53.784;10.440;2023-03-01T05:37:38;6.33;;;6.13;;
7154;SDS011;3619;53.784;10.440;2023-03-01T05:40:06;6.40;;;6.20;;
7154;SDS011;3619;53.784;10.440;2023-03-01T05:42:40;6.10;;;5.90;;
7154;SDS011;3619;53.784;10.440;2023-03-01T05:45:08;6.60;;;6.40;;
7154;SDS011;3619;53.784;10.440;2023-03-01T05:47:35;7.13;;;6.83;;
7154;SDS011;3619;53.784;10.440;2023-03-01T05:50:04;6.67;;;6.47;;
7154;SDS011;3619;53.784;10.440;2023-03-01T05:52:32;7.87;;;7.57;;
7154;SDS011;3619;53.784;10.440;2023-03-01T05:54:59;9.13;;;8.83;;
7154;SDS011;3619;53.784;10.440;2023-03-01T05:57:27;7.77;;;7.47;;
7154;SDS011;3619;53.784;10.440;2023-03-01T05:59:54;9.63;;;9.27;;
7154;SDS011;3619;53.784;10.440;2023-03-01T06:02:21;8.30;;;8.00;;
7154;SDS011;3619;53.784;10.440;2023-03-01T06:04:48;7.97;;;7.67;;
7154;SDS011;3619;53.784;10.440;2023-03-01T06:07:16;10.10;;;9.70;;
7154;SDS011;3619;53.784;10.440;2023-03-01T06:09:43;10.00;;;9.60;;
7154;SDS011;3619;53.784;10.440;2023-03-01T06:12:11;9.30;;;9.00;;
7154;SDS011;3619;53.784;10.440;2023-03-01T06:14:38;8.53;;;8.23;;
7154;SDS011;3619;53.784;10.440;2023-03-01T06:17:05;10.57;;;10.17;;
7154;SDS011;3619;53.784;10.440;2023-03-01T06:19:32;10.87;;;10.47;;
7154;SDS011;3619;53.784;10.440;2023-03-01T06:21:58;10.17;;;9.77;;
7154;SDS011;3619;53.784;10.440;2023-03-01T06:24:26;8.60;;;8.30;;
7154;SDS011;3619;53.784;10.440;2023-03-01T06:26:54;10.43;;;10.03;;
7154;SDS011;3619;53.784;10.440;2023-03-01T06:29:22;9.43;;;9.10;;
7154;SDS011;3619;53.784;10.440;2023-03-01T06:31:49;10.30;;;9.90;;
7154;SDS011;3619;53.784;10.440;2023-03-01T06:34:17;8.03;;;7.73;;
7154;SDS011;3619;53.784;10.440;2023-03-01T06:36:44;6.50;;;6.30;;
7154;SDS011;3619;53.784;10.440;2023-03-01T06:39:12;8.57;;;8.27;;
7154;SDS011;3619;53.784;10.440;2023-03-01T06:41:40;8.17;;;7.87;;
7154;SDS011;3619;53.784;10.440;2023-03-01T06:44:07;7.57;;;7.27;;
7154;SDS011;3619;53.784;10.440;2023-03-01T06:46:33;7.77;;;7.47;;
7154;SDS011;3619;53.784;10.440;2023-03-01T06:49:03;7.13;;;6.83;;
7154;SDS011;3619;53.784;10.440;2023-03-01T06:51:34;7.00;;;6.73;;
7154;SDS011;3619;53.784;10.440;2023-03-01T06:54:01;7.67;;;7.37;;
7154;SDS011;3619;53.784;10.440;2023-03-01T06:56:28;7.13;;;6.83;;
7154;SDS011;3619;53.784;10.440;2023-03-01T06:58:56;6.27;;;6.07;;
7154;SDS011;3619;53.784;10.440;2023-03-01T07:01:23;7.33;;;7.03;;
7154;SDS011;3619;53.784;10.440;2023-03-01T07:03:49;7.57;;;7.27;;
7154;SDS011;3619;53.784;10.440;2023-03-01T07:06:16;7.57;;;7.27;;
7154;SDS011;3619;53.784;10.440;2023-03-01T07:08:43;6.83;;;6.63;;
7154;SDS011;3619;53.784;10.440;2023-03-01T07:11:10;6.40;;;6.20;;
7154;SDS011;3619;53.784;10.440;2023-03-01T07:13:38;6.00;;;5.80;;
7154;SDS011;3619;53.784;10.440;2023-03-01T07:16:06;5.73;;;5.53;;
7154;SDS011;3619;53.784;10.440;2023-03-01T07:18:34;6.23;;;6.03;;
7154;SDS011;3619;53.784;10.440;2023-03-01T07:21:03;7.37;;;7.07;;
7154;SDS011;3619;53.784;10.440;2023-03-01T07:23:33;8.07;;;7.77;;
7154;SDS011;3619;53.784;10.440;2023-03-01T07:26:00;8.23;;;7.93;;
7154;SDS011;3619;53.784;10.440;2023-03-01T07:28:27;7.03;;;6.73;;
7154;SDS011;3619;53.784;10.440;2023-03-01T07:30:54;8.97;;;8.67;;
7154;SDS011;3619;53.784;10.440;2023-03-01T07:33:22;9.20;;;8.90;;
7154;SDS011;3619;53.784;10.440;2023-03-01T07:35:55;8.83;;;8.53;;
7154;SDS011;3619;53.784;10.440;2023-03-01T07:38:25;7.83;;;7.53;;
7154;SDS011;3619;53.784;10.440;2023-03-01T07:40:52;8.63;;;8.33;;
7154;SDS011;3619;53.784;10.440;2023-03-01T07:43:19;9.97;;;9.57;;
7154;SDS011;3619;53.784;10.440;2023-03-01T07:45:46;10.50;;;10.10;;
7154;SDS011;3619;53.784;10.440;2023-03-01T07:48:13;10.43;;;10.03;;
7154;SDS011;3619;53.784;10.440;2023-03-01T07:50:41;11.10;;;10.70;;
7154;SDS011;3619;53.784;10.440;2023-03-01T07:53:08;9.97;;;9.57;;
7154;SDS011;3619;53.784;10.440;2023-03-01T07:55:35;10.63;;;10.23;;
7154;SDS011;3619;53.784;10.440;2023-03-01T07:58:01;10.73;;;10.33;;
7154;SDS011;3619;53.784;10.440;2023-03-01T08:00:28;10.10;;;9.70;;
7154;SDS011;3619;53.784;10.440;2023-03-01T08:02:58;8.43;;;8.13;;
7154;SDS011;3619;53.784;10.440;2023-03-01T08:05:25;8.73;;;8.43;;
7154;SDS011;3619;53.784;10.440;2023-03-01T08:07:53;9.03;;;8.73;;
7154;SDS011;3619;53.784;10.440;2023-03-01T08:10:20;9.07;;;8.77;;
7154;SDS011;3619;53.784;10.440;2023-03-01T08:12:47;8.80;;;8.50;;
7154;SDS011;3619;53.784;10.440;2023-03-01T08:15:13;7.33;;;7.03;;
7154;SDS011;3619;53.784;10.440;2023-03-01T08:17:40;7.67;;;7.37;;
7154;SDS011;3619;53.784;10.440;2023-03-01T08:20:07;8.53;;;8.23;;
7154;SDS011;3619;53.784;10.440;2023-03-01T08:22:37;8.97;;;8.67;;
7154;SDS011;3619;53.784;10.440;2023-03-01T08:25:05;10.37;;;9.97;;
7154;SDS011;3619;53.784;10.440;2023-03-01T08:27:33;9.67;;;9.30;;
7154;SDS011;3619;53.784;10.440;2023-03-01T08:30:02;11.40;;;11.00;;
7154;SDS011;3619;53.784;10.440;2023-03-01T08:32:29;8.97;;;8.67;;
7154;SDS011;3619;53.784;10.440;2023-03-01T08:35:00;9.17;;;8.87;;
7154;SDS011;3619;53.784;10.440;2023-03-01T08:37:27;8.77;;;8.47;;
7154;SDS011;3619;53.784;10.440;2023-03-01T08:39:56;8.33;;;8.03;;
7154;SDS011;3619;53.784;10.440;2023-03-01T08:42:24;8.07;;;7.77;;
7154;SDS011;3619;53.784;10.440;2023-03-01T08:44:50;7.27;;;6.97;;
7154;SDS011;3619;53.784;10.440;2023-03-01T08:47:17;8.07;;;7.77;;
7154;SDS011;3619;53.784;10.440;2023-03-01T08:49:44;7.87;;;7.57;;
7154;SDS011;3619;53.784;10.440;2023-03-01T08:52:10;7.73;;;7.43;;
7154;SDS011;3619;53.784;10.440;2023-03-01T08:54:37;7.70;;;7.40;;
7154;SDS011;3619;53.784;10.440;2023-03-01T08:57:04;7.37;;;7.07;;
7154;SDS011;3619;53.784;10.440;2023-03-01T08:59:32;7.50;;;7.20;;
7154;SDS011;3619;53.784;10.440;2023-03-01T09:02:02;5.57;;;5.37;;
7154;SDS011;3619;53.784;10.440;2023-03-01T09:04:29;6.23;;;6.03;;
7154;SDS011;3619;53.784;10.440;2023-03-01T09:06:55;6.97;;;6.73;;
7154;SDS011;3619;53.784;10.440;2023-03-01T09:09:22;5.37;;;5.17;;
7154;SDS011;3619;53.784;10.440;2023-03-01T09:11:49;6.13;;;5.93;;
7154;SDS011;3619;53.784;10.440;2023-03-01T09:14:16;5.40;;;5.20;;
7154;SDS011;3619;53.784;10.440;2023-03-01T09:16:44;7.17;;;6.87;;
7154;SDS011;3619;53.784;10.440;2023-03-01T09:19:11;7.10;;;6.80;;
7154;SDS011;3619;53.784;10.440;2023-03-01T09:21:38;6.93;;;6.70;;
7154;SDS011;3619;53.784;10.440;2023-03-01T09:24:08;7.27;;;6.97;;
7154;SDS011;3619;53.784;10.440;2023-03-01T09:26:39;7.23;;;6.93;;
7154;SDS011;3619;53.784;10.440;2023-03-01T09:29:06;7.60;;;7.30;;
7154;SDS011;3619;53.784;10.440;2023-03-01T09:31:34;7.17;;;6.87;;
7154;SDS011;3619;53.784;10.440;2023-03-01T09:34:02;7.63;;;7.33;;
7154;SDS011;3619;53.784;10.440;2023-03-01T09:36:29;8.27;;;7.97;;
7154;SDS011;3619;53.784;10.440;2023-03-01T09:38:57;7.70;;;7.40;;
7154;SDS011;3619;53.784;10.440;2023-03-01T09:41:29;8.10;;;7.80;;
7154;SDS011;3619;53.784;10.440;2023-03-01T09:44:10;6.27;;;6.07;;
7154;SDS011;3619;53.784;10.440;2023-03-01T09:46:47;8.93;;;8.63;;
7154;SDS011;3619;53.784;10.440;2023-03-01T09:49:17;8.83;;;8.53;;
7154;SDS011;3619;53.784;10.440;2023-03-01T09:51:48;6.77;;;6.57;;
7154;SDS011;3619;53.784;10.440;2023-03-01T09:54:21;7.23;;;6.93;;
7154;SDS011;3619;53.784;10.440;2023-03-01T09:57:06;6.40;;;6.20;;
7154;SDS011;3619;53.784;10.440;2023-03-01T09:59:52;6.80;;;6.60;;
7154;SDS011;3619;53.784;10.440;2023-03-01T10:02:31;7.37;;;7.07;;
7154;SDS011;3619;53.784;10.440;2023-03-01T10:05:09;6.37;;;6.17;;
7154;SDS011;3619;53.784;10.440;2023-03-01T10:07:43;6.13;;;5.93;;
7154;SDS011;3619;53.784;10.440;2023-03-01T10:10:16;5.67;;;5.47;;
7154;SDS011;3619;53.784;10.440;2023-03-01T10:12:52;5.83;;;5.63;;
7154;SDS011;3619;53.784;10.440;2023-03-01T10:15:22;5.40;;;5.20;;
7154;SDS011;3619;53.784;10.440;2023-03-01T10:18:00;5.23;;;5.03;;
7154;SDS011;3619;53.784;10.440;2023-03-01T10:20:37;5.03;;;4.83;;
7154;SDS011;3619;53.784;10.440;2023-03-01T10:23:09;6.47;;;6.27;;
7154;SDS011;3619;53.784;10.440;2023-03-01T10:25:42;4.27;;;4.17;;
7154;SDS011;3619;53.784;10.440;2023-03-01T10:28:16;5.37;;;5.17;;
7154;SDS011;3619;53.784;10.440;2023-03-01T10:30:45;4.03;;;3.93;;
7154;SDS011;3619;53.784;10.440;2023-03-01T10:33:14;4.50;;;4.33;;
7154;SDS011;3619;53.784;10.440;2023-03-01T10:35:47;4.47;;;4.30;;
7154;SDS011;3619;53.784;10.440;2023-03-01T10:38:15;10.10;;;9.47;;
7154;SDS011;3619;53.784;10.440;2023-03-01T10:40:52;4.73;;;4.53;;
7154;SDS011;3619;53.784;10.440;2023-03-01T10:43:22;4.33;;;4.23;;
7154;SDS011;3619;53.784;10.440;2023-03-01T10:45:51;5.30;;;5.10;;
7154;SDS011;3619;53.784;10.440;2023-03-01T10:48:19;4.27;;;4.17;;
7154;SDS011;3619;53.784;10.440;2023-03-01T10:50:50;4.90;;;4.70;;
7154;SDS011;3619;53.784;10.440;2023-03-01T10:53:32;4.83;;;4.63;;
7154;SDS011;3619;53.784;10.440;2023-03-01T10:56:02;3.87;;;3.77;;
7154;SDS011;3619;53.784;10.440;2023-03-01T10:58:31;4.07;;;3.97;;
7154;SDS011;3619;53.784;10.440;2023-03-01T11:01:00;4.37;;;4.27;;
7154;SDS011;3619;53.784;10.440;2023-03-01T11:03:30;3.80;;;3.70;;
7154;SDS011;3619;53.784;10.440;2023-03-01T11:06:01;4.83;;;4.63;;
7154;SDS011;3619;53.784;10.440;2023-03-01T11:08:34;4.63;;;4.43;;
7154;SDS011;3619;53.784;10.440;2023-03-01T11:11:06;3.87;;;3.77;;
7154;SDS011;3619;53.784;10.440;2023-03-01T11:13:50;3.70;;;3.60;;
7154;SDS011;3619;53.784;10.440;2023-03-01T11:16:28;3.50;;;3.40;;
7154;SDS011;3619;53.784;10.440;2023-03-01T11:19:17;3.40;;;3.30;;
7154;SDS011;3619;53.784;10.440;2023-03-01T11:21:58;3.23;;;3.13;;
7154;SDS011;3619;53.784;10.440;2023-03-01T11:24:33;4.47;;;4.33;;
7154;SDS011;3619;53.784;10.440;2023-03-01T11:27:04;3.13;;;3.03;;
7154;SDS011;3619;53.784;10.440;2023-03-01T11:29:41;3.43;;;3.33;;
7154;SDS011;3619;53.784;10.440;2023-03-01T11:32:12;3.17;;;3.07;;
7154;SDS011;3619;53.784;10.440;2023-03-01T11:34:42;3.00;;;2.90;;
7154;SDS011;3619;53.784;10.440;2023-03-01T11:37:30;2.27;;;2.17;;
7154;SDS011;3619;53.784;10.440;2023-03-01T11:40:03;2.70;;;2.60;;
7154;SDS011;3619;53.784;10.440;2023-03-01T11:42:41;2.30;;;2.20;;
7154;SDS011;3619;53.784;10.440;2023-03-01T11:45:14;2.73;;;2.63;;
7154;SDS011;3619;53.784;10.440;2023-03-01T11:47:45;2.90;;;2.80;;
7154;SDS011;3619;53.784;10.440;2023-03-01T11:50:27;3.50;;;3.40;;
7154;SDS011;3619;53.784;10.440;2023-03-01T11:53:01;3.40;;;3.30;;
7154;SDS011;3619;53.784;10.440;2023-03-01T11:55:45;2.80;;;2.70;;
7154;SDS011;3619;53.784;10.440;2023-03-01T11:58:26;2.77;;;2.67;;
7154;SDS011;3619;53.784;10.440;2023-03-01T12:01:08;2.30;;;2.20;;
7154;SDS011;3619;53.784;10.440;2023-03-01T12:03:47;2.70;;;2.60;;
7154;SDS011;3619;53.784;10.440;2023-03-01T12:06:50;2.80;;;2.70;;
7154;SDS011;3619;53.784;10.440;2023-03-01T12:12:30;2.20;;;2.10;;
7154;SDS011;3619;53.784;10.440;2023-03-01T12:15:15;2.20;;;2.10;;
7154;SDS011;3619;53.784;10.440;2023-03-01T12:18:05;2.40;;;2.30;;
7154;SDS011;3619;53.784;10.440;2023-03-01T12:20:54;2.03;;;1.93;;
7154;SDS011;3619;53.784;10.440;2023-03-01T13:12:20;1.30;;;1.30;;
7154;SDS011;3619;53.784;10.440;2023-03-01T13:15:32;1.40;;;1.40;;
7154;SDS011;3619;53.784;10.440;2023-03-01T13:18:43;1.57;;;1.57;;
7154;SDS011;3619;53.784;10.440;2023-03-01T13:21:30;1.40;;;1.40;;
7154;SDS011;3619;53.784;10.440;2023-03-01T13:24:28;1.33;;;1.33;;
7154;SDS011;3619;53.784;10.440;2023-03-01T13:27:39;1.60;;;1.60;;
7154;SDS011;3619;53.784;10.440;2023-03-01T13:30:38;2.23;;;2.13;;
7154;SDS011;3619;53.784;10.440;2023-03-01T13:36:07;1.60;;;1.60;;
7154;SDS011;3619;53.784;10.440;2023-03-01T13:38:36;1.50;;;1.50;;
7154;SDS011;3619;53.784;10.440;2023-03-01T13:41:06;1.70;;;1.70;;
7154;SDS011;3619;53.784;10.440;2023-03-01T13:43:34;1.70;;;1.70;;
7154;SDS011;3619;53.784;10.440;2023-03-01T13:46:07;2.00;;;1.90;;
7154;SDS011;3619;53.784;10.440;2023-03-01T13:48:36;1.63;;;1.63;;
7154;SDS011;3619;53.784;10.440;2023-03-01T13:51:05;1.80;;;1.80;;
7154;SDS011;3619;53.784;10.440;2023-03-01T13:53:36;1.50;;;1.50;;
7154;SDS011;3619;53.784;10.440;2023-03-01T13:56:09;1.57;;;1.57;;
7154;SDS011;3619;53.784;10.440;2023-03-01T13:58:49;1.50;;;1.50;;
7154;SDS011;3619;53.784;10.440;2023-03-01T14:01:22;2.30;;;2.20;;
7154;SDS011;3619;53.784;10.440;2023-03-01T14:03:52;2.10;;;2.00;;
7154;SDS011;3619;53.784;10.440;2023-03-01T14:06:20;2.00;;;1.90;;
7154;SDS011;3619;53.784;10.440;2023-03-01T14:08:48;2.00;;;1.90;;
7154;SDS011;3619;53.784;10.440;2023-03-01T14:11:48;2.20;;;2.10;;
7154;SDS011;3619;53.784;10.440;2023-03-01T14:14:31;2.20;;;2.10;;
7154;SDS011;3619;53.784;10.440;2023-03-01T14:17:11;2.07;;;1.97;;
7154;SDS011;3619;53.784;10.440;2023-03-01T14:20:00;2.27;;;2.17;;
7154;SDS011;3619;53.784;10.440;2023-03-01T14:22:34;2.00;;;1.90;;
7154;SDS011;3619;53.784;10.440;2023-03-01T14:25:03;2.10;;;2.00;;
7154;SDS011;3619;53.784;10.440;2023-03-01T14:27:34;1.70;;;1.70;;
7154;SDS011;3619;53.784;10.440;2023-03-01T14:30:10;1.63;;;1.63;;
7154;SDS011;3619;53.784;10.440;2023-03-01T14:32:40;1.83;;;1.83;;
7154;SDS011;3619;53.784;10.440;2023-03-01T14:35:19;2.07;;;1.97;;
7154;SDS011;3619;53.784;10.440;2023-03-01T14:37:51;2.10;;;2.00;;
7154;SDS011;3619;53.784;10.440;2023-03-01T14:40:22;2.27;;;2.17;;
7154;SDS011;3619;53.784;10.440;2023-03-01T14:42:52;1.80;;;1.80;;
7154;SDS011;3619;53.784;10.440;2023-03-01T14:45:21;1.60;;;1.60;;
7154;SDS011;3619;53.784;10.440;2023-03-01T14:47:49;1.83;;;1.80;;
7154;SDS011;3619;53.784;10.440;2023-03-01T14:50:20;1.60;;;1.60;;
7154;SDS011;3619;53.784;10.440;2023-03-01T14:52:50;2.00;;;1.90;;
7154;SDS011;3619;53.784;10.440;2023-03-01T14:58:14;2.07;;;1.97;;
7154;SDS011;3619;53.784;10.440;2023-03-01T15:00:46;2.03;;;1.93;;
7154;SDS011;3619;53.784;10.440;2023-03-01T15:03:20;2.10;;;2.00;;
7154;SDS011;3619;53.784;10.440;2023-03-01T15:05:51;1.73;;;1.73;;
7154;SDS011;3619;53.784;10.440;2023-03-01T15:08:21;2.27;;;2.17;;
7154;SDS011;3619;53.784;10.440;2023-03-01T15:10:58;2.27;;;2.17;;
7154;SDS011;3619;53.784;10.440;2023-03-01T15:13:30;2.10;;;2.00;;
7154;SDS011;3619;53.784;10.440;2023-03-01T15:16:03;2.30;;;2.20;;
7154;SDS011;3619;53.784;10.440;2023-03-01T15:18:33;2.40;;;2.30;;
7154;SDS011;3619;53.784;10.440;2023-03-01T15:21:06;2.17;;;2.07;;
7154;SDS011;3619;53.784;10.440;2023-03-01T15:23:35;1.93;;;1.90;;
7154;SDS011;3619;53.784;10.440;2023-03-01T15:26:04;2.03;;;1.93;;
7154;SDS011;3619;53.784;10.440;2023-03-01T15:28:41;2.63;;;2.53;;
7154;SDS011;3619;53.784;10.440;2023-03-01T15:31:18;2.30;;;2.20;;
7154;SDS011;3619;53.784;10.440;2023-03-01T15:33:47;2.40;;;2.30;;
7154;SDS011;3619;53.784;10.440;2023-03-01T15:36:30;2.80;;;2.70;;
7154;SDS011;3619;53.784;10.440;2023-03-01T15:39:00;2.20;;;2.10;;
7154;SDS011;3619;53.784;10.440;2023-03-01T15:41:37;2.77;;;2.67;;
7154;SDS011;3619;53.784;10.440;2023-03-01T16:21:38;3.63;;;3.53;;
7154;SDS011;3619;53.784;10.440;2023-03-01T16:34:32;4.20;;;4.10;;
7154;SDS011;3619;53.784;10.440;2023-03-01T16:40:50;6.17;;;5.97;;
7154;SDS011;3619;53.784;10.440;2023-03-01T16:43:43;5.23;;;5.03;;
7154;SDS011;3619;53.784;10.440;2023-03-01T16:47:38;4.57;;;4.37;;
7154;SDS011;3619;53.784;10.440;2023-03-01T16:50:10;4.17;;;4.07;;
7154;SDS011;3619;53.784;10.440;2023-03-01T16:52:37;3.43;;;3.33;;
7154;SDS011;3619;53.784;10.440;2023-03-01T16:55:06;3.63;;;3.53;;
7154;SDS011;3619;53.784;10.440;2023-03-01T16:57:38;3.63;;;3.53;;
7154;SDS011;3619;53.784;10.440;2023-03-01T17:00:07;4.40;;;4.27;;
7154;SDS011;3619;53.784;10.440;2023-03-01T17:02:35;3.47;;;3.37;;
7154;SDS011;3619;53.784;10.440;2023-03-01T17:05:03;3.10;;;3.00;;
7154;SDS011;3619;53.784;10.440;2023-03-01T17:07:31;3.13;;;3.03;;
7154;SDS011;3619;53.784;10.440;2023-03-01T17:09:59;3.27;;;3.17;;
7154;SDS011;3619;53.784;10.440;2023-03-01T17:12:27;4.30;;;4.20;;
7154;SDS011;3619;53.784;10.440;2023-03-01T17:14:54;3.70;;;3.60;;